Time;durP1;ratioP1;P1;durP2;ratioP2;P2;SDS_P1;SDS_P2;PMS_P1;PMS_P2;Temp;Humidity;BMP_temperature;BMP_pressure;BME280_temperature;BME280_humidity;BME280_pressure;Samples;Min_cycle;Max_cycle;Signal;HPM_P1;HPM_P2
2021/10/11 00:00:48;;;;;;;;;;;1.00;99.90;;;;;;5086041;28;19913;-85
2021/10/11 00:03:14;;;;;;;;;;;0.90;99.90;;;;;;5058313;28;19946;-84
2021/10/11 00:05:39;;;;;;;;;;;0.90;99.90;;;;;;5055272;28;19908;-84
2021/10/11 00:08:05;;;;;;;;;;;0.90;99.90;;;;;;5053115;28;19916;-84
2021/10/11 00:10:30;;;;;;;;;;;0.80;99.90;;;;;;5057028;28;20330;-84
2021/10/11 00:12:56;;;;;;;;;;;0.80;99.90;;;;;;5057767;28;19998;-85
2021/10/11 00:15:24;;;;;;;;;;;0.80;99.90;;;;;;5071649;28;19909;-84
2021/10/11 00:17:50;;;;;;;;;;;0.90;99.90;;;;;;5056597;28;19995;-84
2021/10/11 00:20:16;;;;;;;;;;;0.90;99.90;;;;;;5039162;28;20435;-84
2021/10/11 00:22:41;;;;;;;;;;;1.00;99.90;;;;;;5085802;28;19913;-84
2021/10/11 00:25:07;;;;;;;;;;;1.00;99.90;;;;;;5055558;28;20383;-83
2021/10/11 00:27:33;;;;;;;;;;;1.20;99.90;;;;;;5058196;28;19933;-82
2021/10/11 00:29:59;;;;;;;;;;;1.20;99.90;;;;;;5059331;28;20264;-82
2021/10/11 00:32:24;;;;;;;;;;;1.20;99.90;;;;;;5059376;28;19984;-85
2021/10/11 00:34:50;;;;;;;;;;;1.10;99.90;;;;;;5045213;28;19913;-82
2021/10/11 00:37:15;;;;;;;;;;;1.10;99.90;;;;;;5044928;28;19934;-82
2021/10/11 00:39:41;;;;;;;;;;;1.00;99.90;;;;;;5052657;28;19920;-82
2021/10/11 00:42:06;;;;;;;;;;;1.00;99.90;;;;;;5057634;28;19909;-83
2021/10/11 00:44:32;;;;;;;;;;;0.90;99.90;;;;;;5074452;28;19908;-82
2021/10/11 00:46:57;;;;;;;;;;;0.80;99.90;;;;;;5047692;28;20002;-82
2021/10/11 00:49:23;;;;;;;;;;;0.80;99.90;;;;;;5063123;28;19955;-83
2021/10/11 00:51:48;;;;;;;;;;;0.60;99.90;;;;;;5051304;28;20273;-82
2021/10/11 00:54:14;;;;;;;;;;;0.60;99.90;;;;;;5050472;28;20441;-83
2021/10/11 00:56:40;;;;;;;;;;;0.60;99.90;;;;;;5055726;28;19913;-82
2021/10/11 00:59:05;;;;;;;;;;;0.70;99.90;;;;;;5064458;28;20381;-82
2021/10/11 01:01:31;;;;;;;;;;;0.80;99.90;;;;;;5084655;28;19909;-82
2021/10/11 01:03:57;;;;;;;;;;;0.70;99.90;;;;;;5062625;28;19944;-82
2021/10/11 01:06:22;;;;;;;;;;;0.70;99.90;;;;;;5056789;28;19908;-82
2021/10/11 01:08:48;;;;;;;;;;;0.70;99.90;;;;;;5059156;28;19909;-83
2021/10/11 01:11:13;;;;;;;;;;;0.70;99.90;;;;;;5057331;28;20368;-83
2021/10/11 01:13:39;;;;;;;;;;;0.80;99.90;;;;;;5066809;28;20007;-83
2021/10/11 01:16:05;;;;;;;;;;;0.90;99.90;;;;;;5068851;28;19912;-83
2021/10/11 01:18:30;;;;;;;;;;;0.90;99.90;;;;;;5074045;28;19908;-83
2021/10/11 01:20:56;;;;;;;;;;;0.80;99.90;;;;;;5056057;28;19908;-83
2021/10/11 01:23:25;;;;;;;;;;;0.80;99.90;;;;;;5037603;28;19909;-83
2021/10/11 01:25:50;;;;;;;;;;;0.70;99.90;;;;;;5054616;28;19909;-83
2021/10/11 01:28:16;;;;;;;;;;;0.60;99.90;;;;;;5068294;28;20322;-83
2021/10/11 01:30:41;;;;;;;;;;;0.50;99.90;;;;;;5043191;28;19909;-83
2021/10/11 01:33:09;;;;;;;;;;;0.50;99.90;;;;;;5056287;28;20054;-83
2021/10/11 01:35:34;;;;;;;;;;;0.60;99.90;;;;;;5062229;28;19912;-83
2021/10/11 01:38:00;;;;;;;;;;;0.50;99.90;;;;;;5055161;28;20391;-83
2021/10/11 01:40:25;;;;;;;;;;;0.30;99.90;;;;;;5055176;28;19909;-83
2021/10/11 01:42:52;;;;;;;;;;;0.20;99.90;;;;;;5059281;28;19909;-83
2021/10/11 01:45:18;;;;;;;;;;;0.40;99.90;;;;;;5057480;28;19915;-83
2021/10/11 01:47:43;;;;;;;;;;;0.40;99.90;;;;;;5058348;28;20428;-82
2021/10/11 01:50:09;;;;;;;;;;;0.40;99.90;;;;;;5054228;28;19958;-83
2021/10/11 01:52:36;;;;;;;;;;;0.30;99.90;;;;;;5060099;28;19913;-83
2021/10/11 01:55:01;;;;;;;;;;;0.20;99.90;;;;;;5064060;28;20007;-83
2021/10/11 01:57:27;;;;;;;;;;;0.30;99.90;;;;;;5056874;28;20427;-82
2021/10/11 01:59:52;;;;;;;;;;;0.20;99.90;;;;;;5044980;28;20015;-83
2021/10/11 02:02:18;;;;;;;;;;;0.20;99.90;;;;;;5052778;28;19909;-83
2021/10/11 02:04:43;;;;;;;;;;;0.20;99.90;;;;;;5042555;28;19924;-83
2021/10/11 02:07:09;;;;;;;;;;;0.10;99.90;;;;;;5053216;28;20504;-83
2021/10/11 02:09:34;;;;;;;;;;;0.00;99.90;;;;;;5051316;28;20269;-83
2021/10/11 02:12:00;;;;;;;;;;;-0.10;99.90;;;;;;5056648;28;19917;-83
2021/10/11 02:14:25;;;;;;;;;;;0.00;99.90;;;;;;5070637;28;20361;-83
2021/10/11 02:16:51;;;;;;;;;;;-0.10;99.90;;;;;;5058541;28;19919;-83
2021/10/11 02:19:16;;;;;;;;;;;-0.20;99.90;;;;;;5047659;28;20359;-83
2021/10/11 02:21:42;;;;;;;;;;;-0.20;99.90;;;;;;5078411;28;19909;-83
2021/10/11 02:24:07;;;;;;;;;;;-0.20;99.90;;;;;;5052466;28;19954;-83
2021/10/11 02:26:33;;;;;;;;;;;-0.20;99.90;;;;;;5059089;28;20003;-83
2021/10/11 02:28:58;;;;;;;;;;;-0.10;99.90;;;;;;5078279;28;19995;-83
2021/10/11 02:31:24;;;;;;;;;;;-0.10;99.90;;;;;;5077400;28;20408;-83
2021/10/11 02:33:50;;;;;;;;;;;-0.10;99.90;;;;;;5071090;28;19913;-83
2021/10/11 02:36:16;;;;;;;;;;;-0.10;99.90;;;;;;5050250;28;19908;-83
2021/10/11 02:38:41;;;;;;;;;;;-0.10;99.90;;;;;;5044538;28;19913;-83
2021/10/11 02:41:07;;;;;;;;;;;-0.20;99.90;;;;;;5050859;28;19955;-83
2021/10/11 02:43:32;;;;;;;;;;;-0.30;99.90;;;;;;5068611;28;19916;-83
2021/10/11 02:45:58;;;;;;;;;;;-0.30;99.90;;;;;;5076730;28;19915;-83
2021/10/11 02:48:23;;;;;;;;;;;-0.30;99.90;;;;;;5062332;28;19916;-83
2021/10/11 02:50:49;;;;;;;;;;;-0.30;99.90;;;;;;5048210;28;19932;-83
2021/10/11 02:53:15;;;;;;;;;;;-0.40;99.90;;;;;;5056736;28;20418;-83
2021/10/11 02:55:40;;;;;;;;;;;-0.50;99.90;;;;;;5057594;28;19909;-83
2021/10/11 02:58:06;;;;;;;;;;;-0.60;99.90;;;;;;5056866;28;19920;-83
2021/10/11 03:00:31;;;;;;;;;;;-0.50;99.90;;;;;;5052558;28;19997;-83
2021/10/11 03:02:57;;;;;;;;;;;-0.50;99.90;;;;;;5059427;28;19909;-83
2021/10/11 03:05:22;;;;;;;;;;;-0.50;99.90;;;;;;5040263;28;19912;-83
2021/10/11 03:07:48;;;;;;;;;;;-0.60;99.90;;;;;;5056914;28;19909;-83
2021/10/11 03:10:13;;;;;;;;;;;-0.60;99.90;;;;;;5048014;28;19908;-83
2021/10/11 03:12:39;;;;;;;;;;;-0.60;99.90;;;;;;5057419;28;19917;-83
2021/10/11 03:15:05;;;;;;;;;;;-0.60;99.90;;;;;;5061455;28;19917;-82
2021/10/11 03:17:30;;;;;;;;;;;-0.60;99.90;;;;;;5053912;28;19912;-83
2021/10/11 03:19:56;;;;;;;;;;;-0.50;99.90;;;;;;5044204;28;20386;-83
2021/10/11 03:22:21;;;;;;;;;;;-0.50;99.90;;;;;;5056126;28;20399;-83
2021/10/11 03:24:47;;;;;;;;;;;-0.50;99.90;;;;;;5055454;28;19928;-83
2021/10/11 03:27:12;;;;;;;;;;;-0.60;99.90;;;;;;5054559;28;20428;-83
2021/10/11 03:29:38;;;;;;;;;;;-0.60;99.90;;;;;;5051044;28;19916;-83
2021/10/11 03:32:04;;;;;;;;;;;-0.70;99.90;;;;;;5051822;28;19958;-83
2021/10/11 03:34:29;;;;;;;;;;;-0.70;99.90;;;;;;5052128;28;20384;-83
2021/10/11 03:36:54;;;;;;;;;;;-0.60;99.90;;;;;;5045791;28;19913;-83
2021/10/11 03:39:20;;;;;;;;;;;-0.60;99.90;;;;;;5057394;28;19915;-83
2021/10/11 03:41:45;;;;;;;;;;;-0.50;99.90;;;;;;5063787;28;19908;-82
2021/10/11 03:44:11;;;;;;;;;;;-0.50;99.90;;;;;;5057174;28;20392;-83
2021/10/11 03:46:37;;;;;;;;;;;-0.40;99.90;;;;;;5056975;28;19951;-83
2021/10/11 03:49:03;;;;;;;;;;;-0.40;99.90;;;;;;5056846;28;19995;-83
2021/10/11 03:51:28;;;;;;;;;;;-0.60;99.90;;;;;;5056629;28;19947;-83
2021/10/11 03:53:54;;;;;;;;;;;-0.70;99.90;;;;;;5050351;28;19973;-83
2021/10/11 03:56:19;;;;;;;;;;;-0.80;99.90;;;;;;5038986;28;20333;-83
2021/10/11 03:58:45;;;;;;;;;;;-0.70;99.90;;;;;;5066046;28;19912;-83
2021/10/11 04:01:10;;;;;;;;;;;-0.80;99.90;;;;;;5046772;28;20020;-84
2021/10/11 04:03:36;;;;;;;;;;;-0.70;99.90;;;;;;5054958;28;19908;-84
2021/10/11 04:06:02;;;;;;;;;;;-0.70;99.90;;;;;;5064903;28;19916;-84
2021/10/11 04:08:34;;;;;;;;;;;-0.80;99.90;;;;;;5059326;28;19916;-83
2021/10/11 04:13:25;;;;;;;;;;;-0.60;99.90;;;;;;5055226;28;20434;-85
2021/10/11 04:15:51;;;;;;;;;;;-0.60;99.90;;;;;;5057706;28;19958;-84
2021/10/11 04:18:16;;;;;;;;;;;-0.80;99.90;;;;;;5057198;28;20514;-84
2021/10/11 04:20:42;;;;;;;;;;;-0.80;99.90;;;;;;5074776;28;19920;-84
2021/10/11 04:23:08;;;;;;;;;;;-0.70;99.90;;;;;;5074757;28;20379;-85
2021/10/11 04:25:33;;;;;;;;;;;-0.70;99.90;;;;;;5057180;28;19909;-83
2021/10/11 04:27:59;;;;;;;;;;;-0.50;99.90;;;;;;5091809;28;19934;-83
2021/10/11 04:30:25;;;;;;;;;;;-0.70;99.90;;;;;;5042739;28;19948;-83
2021/10/11 04:32:50;;;;;;;;;;;-0.60;99.90;;;;;;5049743;28;20364;-83
2021/10/11 04:35:16;;;;;;;;;;;-0.60;99.90;;;;;;5055655;28;19908;-83
2021/10/11 04:37:42;;;;;;;;;;;-0.70;99.90;;;;;;5055199;28;20283;-83
2021/10/11 04:40:08;;;;;;;;;;;-0.70;99.90;;;;;;5073666;28;19909;-83
2021/10/11 04:42:34;;;;;;;;;;;-0.70;99.90;;;;;;5055687;28;20436;-83
2021/10/11 04:44:59;;;;;;;;;;;-0.60;99.90;;;;;;5055523;28;19916;-83
2021/10/11 04:47:25;;;;;;;;;;;-0.70;99.90;;;;;;5073589;28;19955;-83
2021/10/11 04:49:50;;;;;;;;;;;-0.60;99.90;;;;;;5067275;28;20292;-83
2021/10/11 04:52:16;;;;;;;;;;;-0.70;99.90;;;;;;5054461;28;20360;-84
2021/10/11 04:54:41;;;;;;;;;;;-0.70;99.90;;;;;;5052822;28;19919;-84
2021/10/11 04:57:06;;;;;;;;;;;-0.80;99.90;;;;;;5054013;28;19916;-83
2021/10/11 04:59:32;;;;;;;;;;;-0.90;99.90;;;;;;5036317;28;19909;-83
2021/10/11 05:01:57;;;;;;;;;;;-0.80;99.90;;;;;;5054444;28;20438;-83
2021/10/11 05:04:23;;;;;;;;;;;-0.80;99.90;;;;;;5059078;28;20007;-84
2021/10/11 05:06:48;;;;;;;;;;;-0.80;99.90;;;;;;5053209;28;19909;-83
2021/10/11 05:09:14;;;;;;;;;;;-0.70;99.90;;;;;;5053175;28;19966;-84
2021/10/11 05:11:39;;;;;;;;;;;-0.80;99.90;;;;;;5054271;28;19916;-84
2021/10/11 05:14:05;;;;;;;;;;;-0.80;99.90;;;;;;5036863;28;19913;-84
2021/10/11 05:16:33;;;;;;;;;;;-0.90;99.90;;;;;;5056000;28;19963;-84
2021/10/11 05:19:00;;;;;;;;;;;-0.90;99.90;;;;;;5056201;28;19909;-84
2021/10/11 05:21:25;;;;;;;;;;;-0.90;99.90;;;;;;5052542;28;19917;-84
2021/10/11 05:23:50;;;;;;;;;;;-0.90;99.90;;;;;;5071294;28;20042;-84
2021/10/11 05:26:16;;;;;;;;;;;-0.90;99.90;;;;;;5072187;28;19915;-84
2021/10/11 05:28:41;;;;;;;;;;;-0.90;99.90;;;;;;5072787;28;20320;-83
2021/10/11 05:31:07;;;;;;;;;;;-0.80;99.90;;;;;;5072510;28;19908;-84
2021/10/11 05:33:33;;;;;;;;;;;-0.90;99.90;;;;;;5045703;28;19916;-83
2021/10/11 05:35:59;;;;;;;;;;;-0.80;99.90;;;;;;5036900;28;19913;-83
2021/10/11 05:38:25;;;;;;;;;;;-0.80;99.90;;;;;;5050702;28;19919;-83
2021/10/11 05:40:51;;;;;;;;;;;-0.80;99.90;;;;;;5049192;28;19909;-83
2021/10/11 05:43:16;;;;;;;;;;;-0.70;99.90;;;;;;5037113;28;19915;-83
2021/10/11 05:45:42;;;;;;;;;;;-0.70;99.90;;;;;;5053565;28;19958;-84
2021/10/11 05:48:07;;;;;;;;;;;-0.60;99.90;;;;;;5053519;28;20376;-83
2021/10/11 05:50:33;;;;;;;;;;;-0.60;99.90;;;;;;5053344;28;19915;-83
2021/10/11 05:52:58;;;;;;;;;;;-0.60;99.90;;;;;;5045643;28;19936;-84
2021/10/11 05:55:24;;;;;;;;;;;-0.50;99.90;;;;;;5051730;28;19913;-84
2021/10/11 05:57:49;;;;;;;;;;;-0.60;99.90;;;;;;4996835;28;1778484;-84
2021/10/11 06:00:15;;;;;;;;;;;-0.60;99.90;;;;;;5053909;28;19912;-84
2021/10/11 06:02:41;;;;;;;;;;;-0.50;99.90;;;;;;5053874;28;19952;-84
2021/10/11 06:05:06;;;;;;;;;;;-0.60;99.90;;;;;;5039404;28;20341;-84
2021/10/11 06:07:32;;;;;;;;;;;-0.50;99.90;;;;;;5035721;28;19909;-85
2021/10/11 06:09:57;;;;;;;;;;;-0.40;99.90;;;;;;5042259;28;20051;-84
2021/10/11 06:12:23;;;;;;;;;;;-0.30;99.90;;;;;;5064417;28;19941;-84
2021/10/11 06:14:52;;;;;;;;;;;-0.40;99.90;;;;;;5075086;28;19965;-83
2021/10/11 06:17:18;;;;;;;;;;;-0.40;99.90;;;;;;5043174;28;19908;-83
2021/10/11 06:19:43;;;;;;;;;;;-0.40;99.90;;;;;;5093603;28;20522;-83
2021/10/11 06:22:09;;;;;;;;;;;-0.30;99.90;;;;;;5068009;28;19935;-81
2021/10/11 06:24:34;;;;;;;;;;;-0.20;99.90;;;;;;5068884;28;19913;-81
2021/10/11 06:27:03;;;;;;;;;;;-0.10;99.90;;;;;;5070973;28;19951;-81
2021/10/11 06:29:28;;;;;;;;;;;0.10;99.90;;;;;;5060285;28;19915;-81
2021/10/11 06:31:54;;;;;;;;;;;0.20;99.90;;;;;;5064413;28;19968;-81
2021/10/11 06:34:19;;;;;;;;;;;0.20;99.90;;;;;;5054673;28;20327;-81
2021/10/11 06:36:45;;;;;;;;;;;0.30;99.90;;;;;;5058276;28;19913;-81
2021/10/11 06:39:10;;;;;;;;;;;0.40;99.90;;;;;;5043178;28;20383;-81
2021/10/11 06:41:36;;;;;;;;;;;0.60;99.90;;;;;;5067967;28;19916;-81
2021/10/11 06:44:01;;;;;;;;;;;0.70;99.90;;;;;;5051836;28;19917;-81
2021/10/11 06:46:27;;;;;;;;;;;0.70;99.90;;;;;;5048842;28;20364;-81
2021/10/11 06:48:52;;;;;;;;;;;0.70;99.90;;;;;;5046385;28;20021;-81
2021/10/11 06:51:18;;;;;;;;;;;0.80;99.90;;;;;;5068688;28;19908;-81
2021/10/11 06:53:43;;;;;;;;;;;0.90;99.90;;;;;;5063934;28;20450;-81
2021/10/11 06:56:09;;;;;;;;;;;1.00;99.90;;;;;;5052803;28;19909;-81
2021/10/11 06:58:34;;;;;;;;;;;1.00;99.90;;;;;;5055725;28;19948;-81
2021/10/11 07:01:00;;;;;;;;;;;1.10;99.90;;;;;;5050201;28;20380;-82
2021/10/11 07:03:26;;;;;;;;;;;1.20;99.90;;;;;;5067233;28;20376;-82
2021/10/11 07:05:55;;;;;;;;;;;1.20;99.90;;;;;;5045933;28;19909;-81
2021/10/11 07:08:20;;;;;;;;;;;1.30;99.90;;;;;;5046842;28;19909;-82
2021/10/11 07:10:46;;;;;;;;;;;1.60;99.90;;;;;;5054203;28;19915;-81
2021/10/11 07:13:12;;;;;;;;;;;1.90;99.90;;;;;;5049470;28;20433;-83
2021/10/11 07:15:37;;;;;;;;;;;2.10;99.90;;;;;;5048867;28;19915;-81
2021/10/11 07:18:03;;;;;;;;;;;2.30;99.90;;;;;;5075718;28;20007;-81
2021/10/11 07:20:28;;;;;;;;;;;2.70;99.90;;;;;;5053156;28;19908;-82
2021/10/11 07:22:54;;;;;;;;;;;2.90;99.90;;;;;;5052404;28;19962;-82
2021/10/11 07:25:19;;;;;;;;;;;2.90;99.90;;;;;;5038496;28;20014;-82
2021/10/11 07:27:45;;;;;;;;;;;3.10;99.90;;;;;;5051314;28;19916;-82
2021/10/11 07:30:10;;;;;;;;;;;3.20;99.90;;;;;;5073807;28;19909;-82
2021/10/11 07:32:36;;;;;;;;;;;3.40;99.90;;;;;;5058892;28;19974;-84
2021/10/11 07:35:02;;;;;;;;;;;3.60;99.90;;;;;;5062758;28;20380;-82
2021/10/11 07:37:27;;;;;;;;;;;3.80;99.90;;;;;;5056631;28;20563;-84
2021/10/11 07:39:52;;;;;;;;;;;4.00;99.90;;;;;;5055220;28;19967;-85
2021/10/11 07:42:18;;;;;;;;;;;4.30;99.90;;;;;;5054539;28;19908;-84
2021/10/11 07:44:44;;;;;;;;;;;4.50;99.90;;;;;;5068153;28;19909;-85
2021/10/11 07:47:09;;;;;;;;;;;4.60;99.90;;;;;;5044589;28;19944;-84
2021/10/11 07:49:35;;;;;;;;;;;4.90;99.90;;;;;;5055580;28;20289;-84
2021/10/11 07:52:00;;;;;;;;;;;5.10;99.90;;;;;;5062478;28;20360;-84
2021/10/11 07:54:26;;;;;;;;;;;5.30;99.90;;;;;;5064771;28;19943;-84
2021/10/11 07:56:52;;;;;;;;;;;5.60;99.90;;;;;;5058966;28;19995;-85
2021/10/11 07:59:17;;;;;;;;;;;5.90;99.90;;;;;;5050635;28;19912;-84
2021/10/11 08:01:43;;;;;;;;;;;6.90;99.90;;;;;;5041854;28;20004;-85
2021/10/11 08:04:08;;;;;;;;;;;8.90;99.90;;;;;;5047015;28;20300;-84
2021/10/11 08:06:34;;;;;;;;;;;10.40;99.90;;;;;;5063851;28;19908;-83
2021/10/11 08:08:59;;;;;;;;;;;11.50;99.90;;;;;;5053961;28;19964;-82
2021/10/11 08:11:25;;;;;;;;;;;11.90;99.90;;;;;;5047426;28;19932;-83
2021/10/11 08:13:50;;;;;;;;;;;11.20;99.90;;;;;;5053729;28;19913;-83
2021/10/11 08:16:16;;;;;;;;;;;11.40;99.90;;;;;;5045983;28;19916;-84
2021/10/11 08:18:41;;;;;;;;;;;11.20;99.90;;;;;;5073293;28;19994;-82
2021/10/11 08:21:07;;;;;;;;;;;11.10;99.90;;;;;;5056452;28;19908;-83
2021/10/11 08:23:38;;;;;;;;;;;11.20;99.90;;;;;;5074753;28;19916;-83
2021/10/11 08:26:04;;;;;;;;;;;11.00;99.90;;;;;;5055192;28;19909;-83
2021/10/11 08:28:29;;;;;;;;;;;11.50;99.90;;;;;;5049131;28;19998;-83
2021/10/11 08:30:55;;;;;;;;;;;11.30;99.90;;;;;;5042668;28;19919;-84
2021/10/11 08:33:21;;;;;;;;;;;11.90;99.90;;;;;;5044264;28;20360;-84
2021/10/11 08:35:46;;;;;;;;;;;12.50;99.90;;;;;;5047171;28;19909;-83
2021/10/11 08:38:12;;;;;;;;;;;13.70;99.90;;;;;;5051852;28;19909;-83
2021/10/11 08:40:37;;;;;;;;;;;14.30;99.90;;;;;;5079894;28;20372;-83
2021/10/11 08:43:03;;;;;;;;;;;14.50;99.90;;;;;;5052810;28;19916;-83
2021/10/11 08:45:28;;;;;;;;;;;14.60;99.90;;;;;;5068219;28;19913;-83
2021/10/11 08:47:54;;;;;;;;;;;14.90;99.90;;;;;;5061716;28;19909;-84
2021/10/11 08:50:19;;;;;;;;;;;14.90;99.90;;;;;;5050926;28;20276;-84
2021/10/11 08:52:48;;;;;;;;;;;15.20;99.90;;;;;;5065071;28;19995;-86
2021/10/11 08:55:14;;;;;;;;;;;15.80;99.90;;;;;;5053392;28;20376;-85
2021/10/11 08:57:39;;;;;;;;;;;15.70;99.90;;;;;;5074502;28;19916;-84
2021/10/11 09:00:07;;;;;;;;;;;16.00;99.90;;;;;;5043046;28;20007;-84
2021/10/11 09:02:32;;;;;;;;;;;16.70;99.40;;;;;;5045479;28;19909;-82
2021/10/11 09:04:58;;;;;;;;;;;16.80;98.80;;;;;;5046381;28;19912;-82
2021/10/11 09:07:27;;;;;;;;;;;16.90;99.50;;;;;;5036778;28;19970;-85
2021/10/11 09:09:54;;;;;;;;;;;18.00;98.40;;;;;;5048180;28;20003;-85
2021/10/11 09:12:23;;;;;;;;;;;18.00;97.60;;;;;;5066764;28;20030;-81
2021/10/11 09:15:07;;;;;;;;;;;17.10;98.70;;;;;;5065939;28;19960;-84
2021/10/11 09:17:43;;;;;;;;;;;16.40;99.10;;;;;;5061097;28;19931;-84
2021/10/11 09:20:11;;;;;;;;;;;14.70;98.30;;;;;;5073941;28;19909;-84
2021/10/11 09:22:37;;;;;;;;;;;14.30;99.80;;;;;;5046287;28;19980;-84
2021/10/11 09:25:03;;;;;;;;;;;14.50;99.90;;;;;;5061054;28;19951;-84
2021/10/11 09:27:29;;;;;;;;;;;14.60;98.40;;;;;;5061953;28;19915;-84
2021/10/11 09:29:54;;;;;;;;;;;14.10;99.90;;;;;;5072890;28;19912;-84
2021/10/11 09:32:28;;;;;;;;;;;14.80;99.90;;;;;;5049930;28;19908;-84
2021/10/11 09:34:54;;;;;;;;;;;15.30;99.90;;;;;;5047227;28;19995;-85
2021/10/11 09:37:19;;;;;;;;;;;14.50;99.40;;;;;;5060088;28;19997;-84
2021/10/11 09:39:44;;;;;;;;;;;14.50;99.70;;;;;;5048251;28;19923;-84
2021/10/11 09:42:16;;;;;;;;;;;15.50;99.10;;;;;;5048136;28;19916;-85
2021/10/11 09:44:51;;;;;;;;;;;15.90;97.70;;;;;;5051081;28;19963;-85
2021/10/11 09:47:32;;;;;;;;;;;17.20;96.40;;;;;;5074316;28;19912;-84
2021/10/11 09:49:59;;;;;;;;;;;17.10;96.00;;;;;;5062067;28;19913;-84
2021/10/11 09:52:25;;;;;;;;;;;16.90;95.60;;;;;;5057025;28;19958;-84
2021/10/11 09:54:51;;;;;;;;;;;17.70;95.10;;;;;;5058901;28;19916;-84
2021/10/11 09:57:16;;;;;;;;;;;17.70;93.60;;;;;;5040020;28;20342;-84
2021/10/11 09:59:44;;;;;;;;;;;16.70;96.40;;;;;;5061731;28;19909;-85
2021/10/11 10:02:10;;;;;;;;;;;15.90;95.70;;;;;;5060928;28;19916;-85
2021/10/11 10:04:38;;;;;;;;;;;15.60;97.30;;;;;;5057210;28;19913;-88
2021/10/11 10:07:05;;;;;;;;;;;15.30;97.90;;;;;;5040522;28;19915;-86
2021/10/11 10:09:30;;;;;;;;;;;14.50;97.40;;;;;;5063435;28;20375;-86
2021/10/11 10:11:57;;;;;;;;;;;13.60;98.40;;;;;;5072427;28;19951;-85
2021/10/11 10:14:23;;;;;;;;;;;13.60;99.20;;;;;;5079904;28;19923;-86
2021/10/11 10:16:53;;;;;;;;;;;13.70;99.90;;;;;;5050723;28;19912;-85
2021/10/11 10:19:20;;;;;;;;;;;13.50;99.80;;;;;;5067450;28;20340;-85
2021/10/11 10:21:46;;;;;;;;;;;13.10;99.90;;;;;;5040193;28;19963;-86
2021/10/11 10:24:21;;;;;;;;;;;13.20;99.90;;;;;;5039843;28;19912;-86
2021/10/11 10:26:46;;;;;;;;;;;12.60;99.40;;;;;;5036834;28;20376;-86
2021/10/11 10:29:12;;;;;;;;;;;12.50;99.90;;;;;;5062929;28;19955;-85
2021/10/11 10:31:37;;;;;;;;;;;12.60;99.90;;;;;;5064644;28;19915;-87
2021/10/11 10:34:12;;;;;;;;;;;12.70;99.60;;;;;;5042508;28;19913;-86
2021/10/11 10:36:42;;;;;;;;;;;12.70;99.90;;;;;;5059545;28;19966;-86
2021/10/11 10:39:08;;;;;;;;;;;12.70;98.50;;;;;;5055492;28;19915;-87
2021/10/11 10:41:34;;;;;;;;;;;12.70;99.50;;;;;;5059919;28;20395;-86
2021/10/11 10:44:18;;;;;;;;;;;12.50;99.10;;;;;;5056827;28;19912;-85
2021/10/11 10:47:04;;;;;;;;;;;12.50;99.00;;;;;;5050511;28;19909;-86
2021/10/11 10:49:32;;;;;;;;;;;12.70;99.90;;;;;;5052233;28;19909;-86
2021/10/11 10:51:58;;;;;;;;;;;12.60;99.70;;;;;;5047550;28;20362;-85
2021/10/11 10:54:35;;;;;;;;;;;12.80;99.00;;;;;;5046158;28;20371;-85
2021/10/11 10:57:00;;;;;;;;;;;12.60;99.60;;;;;;5051088;28;19921;-84
2021/10/11 10:59:26;;;;;;;;;;;12.80;99.10;;;;;;5059006;28;19908;-84
2021/10/11 11:02:01;;;;;;;;;;;12.60;98.80;;;;;;5057111;28;20004;-87
2021/10/11 11:04:29;;;;;;;;;;;13.50;99.10;;;;;;5065568;28;19917;-85
2021/10/11 11:07:04;;;;;;;;;;;14.30;98.20;;;;;;5063192;28;19909;-85
2021/10/11 11:09:43;;;;;;;;;;;14.20;97.80;;;;;;5073589;28;19908;-85
2021/10/11 11:12:10;;;;;;;;;;;14.50;96.20;;;;;;5055395;28;19909;-84
2021/10/11 11:14:35;;;;;;;;;;;15.40;97.10;;;;;;5078849;28;20050;-84
2021/10/11 11:17:01;;;;;;;;;;;16.50;95.00;;;;;;5053312;28;19916;-84
2021/10/11 11:19:37;;;;;;;;;;;17.70;92.90;;;;;;5056976;28;19944;-84
2021/10/11 11:22:02;;;;;;;;;;;18.80;92.40;;;;;;5080604;28;19909;-85
2021/10/11 11:24:28;;;;;;;;;;;19.50;90.10;;;;;;5073389;28;19958;-85
2021/10/11 11:26:53;;;;;;;;;;;18.60;89.80;;;;;;5065299;28;19909;-85
2021/10/11 11:29:19;;;;;;;;;;;17.50;89.30;;;;;;5091207;28;19921;-84
2021/10/11 11:31:51;;;;;;;;;;;15.00;92.10;;;;;;5070901;28;19916;-86
2021/10/11 11:34:17;;;;;;;;;;;14.20;95.60;;;;;;5063258;28;19909;-85
2021/10/11 11:36:53;;;;;;;;;;;13.40;95.60;;;;;;5063568;28;19973;-86
2021/10/11 11:39:19;;;;;;;;;;;13.30;97.70;;;;;;5063865;28;19901;-85
2021/10/11 11:41:49;;;;;;;;;;;13.20;97.40;;;;;;5078859;28;19901;-84
2021/10/11 11:44:21;;;;;;;;;;;13.10;98.00;;;;;;5082795;28;19897;-83
2021/10/11 11:46:47;;;;;;;;;;;13.30;98.60;;;;;;5087805;28;19919;-84
2021/10/11 11:49:22;;;;;;;;;;;13.10;98.00;;;;;;5096864;28;19900;-85
2021/10/11 11:51:48;;;;;;;;;;;12.90;98.40;;;;;;5080085;28;19913;-84
2021/10/11 11:54:18;;;;;;;;;;;13.10;99.60;;;;;;5094302;28;19927;-85
2021/10/11 11:56:43;;;;;;;;;;;12.90;99.70;;;;;;5058381;28;19978;-85
2021/10/11 11:59:08;;;;;;;;;;;12.90;99.70;;;;;;5063111;28;20364;-85
2021/10/11 12:01:34;;;;;;;;;;;12.80;98.80;;;;;;5063041;28;19908;-87
2021/10/11 12:04:06;;;;;;;;;;;12.80;99.80;;;;;;5042379;28;20611;-87
2021/10/11 12:06:33;;;;;;;;;;;13.00;99.60;;;;;;5066260;28;19908;-86
2021/10/11 12:08:59;;;;;;;;;;;13.00;99.80;;;;;;5066375;28;19961;-85
2021/10/11 12:11:24;;;;;;;;;;;12.60;99.10;;;;;;5044401;28;20011;-86
2021/10/11 12:13:55;;;;;;;;;;;12.60;99.70;;;;;;5064101;28;19912;-85
2021/10/11 12:16:21;;;;;;;;;;;12.50;99.90;;;;;;5042460;28;20398;-86
2021/10/11 12:18:50;;;;;;;;;;;12.70;99.90;;;;;;5050590;28;19955;-86
2021/10/11 12:21:21;;;;;;;;;;;12.80;99.90;;;;;;5060037;28;19913;-85
2021/10/11 12:23:47;;;;;;;;;;;12.80;99.90;;;;;;5050237;28;20365;-85
2021/10/11 12:26:12;;;;;;;;;;;12.80;99.90;;;;;;5041563;28;20352;-84
2021/10/11 12:28:54;;;;;;;;;;;12.90;99.90;;;;;;5044159;28;19916;-85
2021/10/11 12:31:24;;;;;;;;;;;13.00;99.90;;;;;;5052611;28;19908;-85
2021/10/11 12:33:50;;;;;;;;;;;12.70;99.90;;;;;;5039419;28;19966;-86
2021/10/11 12:36:16;;;;;;;;;;;12.60;99.90;;;;;;5059826;28;19943;-87
2021/10/11 12:38:41;;;;;;;;;;;12.80;99.90;;;;;;5055216;28;19924;-86
2021/10/11 12:41:14;;;;;;;;;;;12.90;99.90;;;;;;5057709;28;20283;-86
2021/10/11 12:43:52;;;;;;;;;;;13.00;99.90;;;;;;5072790;28;19909;-85
2021/10/11 12:46:18;;;;;;;;;;;13.10;99.90;;;;;;5055726;28;19915;-85
2021/10/11 12:48:51;;;;;;;;;;;13.10;99.90;;;;;;5038900;28;20233;-85
2021/10/11 12:51:43;;;;;;;;;;;12.90;99.90;;;;;;5078834;28;19909;-83
2021/10/11 12:54:10;;;;;;;;;;;13.00;99.90;;;;;;5037472;28;19927;-83
2021/10/11 12:56:36;;;;;;;;;;;12.80;99.90;;;;;;5044268;28;19959;-83
2021/10/11 12:59:03;;;;;;;;;;;12.70;99.90;;;;;;5065423;28;19909;-84
2021/10/11 13:01:29;;;;;;;;;;;12.70;99.90;;;;;;5060418;28;19930;-83
2021/10/11 13:03:55;;;;;;;;;;;12.80;99.90;;;;;;5055048;28;19963;-83
2021/10/11 13:06:21;;;;;;;;;;;12.80;99.90;;;;;;5040573;28;19909;-84
2021/10/11 13:08:47;;;;;;;;;;;12.80;99.90;;;;;;5047755;28;19912;-82
2021/10/11 13:11:12;;;;;;;;;;;12.80;99.90;;;;;;5069873;28;20419;-84
2021/10/11 13:13:38;;;;;;;;;;;12.80;99.90;;;;;;5054273;28;19916;-83
2021/10/11 13:16:04;;;;;;;;;;;12.80;99.90;;;;;;5043715;28;19915;-85
2021/10/11 13:18:29;;;;;;;;;;;12.60;99.90;;;;;;5061006;28;19915;-84
2021/10/11 13:20:57;;;;;;;;;;;12.50;99.90;;;;;;5039075;28;19920;-84
2021/10/11 13:23:22;;;;;;;;;;;12.60;99.90;;;;;;5054877;28;19909;-84
2021/10/11 13:25:48;;;;;;;;;;;12.60;99.90;;;;;;5072233;28;19915;-84
2021/10/11 13:28:13;;;;;;;;;;;12.70;99.90;;;;;;5054461;28;19909;-83
2021/10/11 14:27:54;;;;;;;;;;;12.30;99.90;;;;;;5056557;28;19916;-85
2021/10/11 14:30:26;;;;;;;;;;;12.30;99.90;;;;;;5054724;28;19908;-84
2021/10/11 14:33:05;;;;;;;;;;;12.30;99.90;;;;;;5063467;28;19909;-85
2021/10/11 15:54:47;;;;;;;;;;;10.20;99.90;;;;;;5060008;28;20376;-84
2021/10/11 15:59:44;;;;;;;;;;;10.10;99.90;;;;;;5056864;28;20334;-84
2021/10/11 16:04:55;;;;;;;;;;;10.10;99.90;;;;;;5066463;28;19919;-84
2021/10/11 16:07:21;;;;;;;;;;;10.10;99.90;;;;;;5047985;28;20307;-83
2021/10/11 16:09:46;;;;;;;;;;;10.10;99.90;;;;;;5058920;28;19974;-84
2021/10/11 16:12:12;;;;;;;;;;;10.10;99.90;;;;;;5076674;28;20032;-83
2021/10/11 16:14:37;;;;;;;;;;;10.10;99.90;;;;;;5042809;28;20396;-83
2021/10/11 16:17:03;;;;;;;;;;;10.00;99.90;;;;;;5057930;28;19912;-83
2021/10/11 16:19:28;;;;;;;;;;;10.00;99.90;;;;;;5060079;28;19959;-83
2021/10/11 16:21:54;;;;;;;;;;;10.10;99.90;;;;;;5061226;28;19909;-84
2021/10/11 16:24:20;;;;;;;;;;;10.10;99.90;;;;;;5046811;28;19909;-84
2021/10/11 16:26:47;;;;;;;;;;;10.00;99.90;;;;;;5062795;28;19963;-84
2021/10/11 16:29:13;;;;;;;;;;;10.00;99.90;;;;;;5055982;28;20003;-87
2021/10/11 16:31:38;;;;;;;;;;;10.00;99.90;;;;;;5055493;28;19908;-88
2021/10/11 16:34:04;;;;;;;;;;;9.90;99.90;;;;;;5054244;28;19920;-87
2021/10/11 16:36:30;;;;;;;;;;;9.90;99.90;;;;;;5050355;28;19955;-86
2021/10/11 16:38:55;;;;;;;;;;;9.90;99.90;;;;;;5065938;28;19920;-86
2021/10/11 16:41:21;;;;;;;;;;;9.90;99.90;;;;;;5049793;28;19916;-87